Time;durP1;ratioP1;P1;durP2;ratioP2;P2;SDS_P1;SDS_P2;PMS_P1;PMS_P2;Temp;Humidity;BMP_temperature;BMP_pressure;BME280_temperature;BME280_humidity;BME280_pressure;Samples;Min_cycle;Max_cycle;Signal;HPM_P1;HPM_P2
2022/03/01 00:00:22;;;;;;;2.92;2.45;;;20.60;46.20;;;;;;5025944;28;20124;-72
2022/03/01 00:02:48;;;;;;;4.88;2.33;;;20.60;46.10;;;;;;5042115;28;20033;-72
2022/03/01 00:05:14;;;;;;;3.40;2.50;;;20.60;46.10;;;;;;5042273;28;20045;-71
2022/03/01 00:07:40;;;;;;;3.40;2.42;;;20.60;46.20;;;;;;5042785;28;20409;-72
2022/03/01 00:10:06;;;;;;;2.50;2.30;;;20.60;46.10;;;;;;5042789;28;20041;-72
2022/03/01 00:12:31;;;;;;;3.10;2.38;;;20.60;46.20;;;;;;5038945;28;20834;-71
2022/03/01 00:14:57;;;;;;;3.60;2.55;;;20.60;46.20;;;;;;5042184;28;20056;-71
2022/03/01 00:17:23;;;;;;;3.00;2.53;;;20.50;46.10;;;;;;5042199;28;20048;-72
2022/03/01 00:19:48;;;;;;;3.40;2.70;;;20.60;46.20;;;;;;5041364;28;20048;-71
2022/03/01 00:22:15;;;;;;;4.25;2.65;;;20.60;46.30;;;;;;5025437;28;20123;-72
2022/03/01 00:24:41;;;;;;;3.95;2.80;;;20.60;46.20;;;;;;5024380;28;20045;-72
2022/03/01 00:27:08;;;;;;;4.70;2.30;;;20.60;46.30;;;;;;5041987;28;20404;-73
2022/03/01 00:29:33;;;;;;;3.10;2.40;;;20.50;46.20;;;;;;5040561;28;20053;-72
2022/03/01 00:31:59;;;;;;;2.75;2.47;;;20.50;46.20;;;;;;5045215;28;20039;-71
2022/03/01 00:34:24;;;;;;;4.28;2.50;;;20.50;46.20;;;;;;5045754;28;20121;-72
2022/03/01 00:36:50;;;;;;;3.50;2.40;;;20.50;46.20;;;;;;5044885;28;20135;-72
2022/03/01 00:39:15;;;;;;;3.42;2.50;;;20.50;46.20;;;;;;5046264;28;20076;-72
2022/03/01 00:41:41;;;;;;;3.22;2.35;;;20.50;46.20;;;;;;5043952;28;20035;-71
2022/03/01 00:44:07;;;;;;;3.05;2.30;;;20.50;46.10;;;;;;5045571;28;20052;-72
2022/03/01 00:46:32;;;;;;;3.17;2.13;;;20.50;46.20;;;;;;5045880;28;20033;-71
2022/03/01 00:48:59;;;;;;;3.42;2.70;;;20.50;46.10;;;;;;5045401;28;20053;-72
2022/03/01 00:51:26;;;;;;;4.38;2.47;;;20.50;46.20;;;;;;5045419;28;20045;-72
2022/03/01 00:53:52;;;;;;;2.77;2.30;;;20.50;46.10;;;;;;5045255;28;20037;-72
2022/03/01 00:56:18;;;;;;;3.15;2.50;;;20.50;46.10;;;;;;5043354;28;20356;-73
2022/03/01 00:58:44;;;;;;;3.17;2.60;;;20.50;46.10;;;;;;5040586;28;20040;-72
2022/03/01 01:01:10;;;;;;;2.50;2.20;;;20.50;46.20;;;;;;5045409;28;20475;-72
2022/03/01 01:03:36;;;;;;;2.83;2.50;;;20.50;46.20;;;;;;5043554;28;20047;-72
2022/03/01 01:06:02;;;;;;;10.30;2.60;;;20.50;46.10;;;;;;5044708;28;20037;-73
2022/03/01 01:08:27;;;;;;;3.05;2.30;;;20.50;46.20;;;;;;5044428;28;20041;-71
2022/03/01 01:10:53;;;;;;;3.00;2.30;;;20.50;46.40;;;;;;5045313;28;20049;-73
2022/03/01 01:13:19;;;;;;;3.15;2.20;;;20.60;46.50;;;;;;5046624;28;20056;-72
2022/03/01 01:15:45;;;;;;;3.72;2.20;;;20.50;46.60;;;;;;5045229;28;20037;-74
2022/03/01 01:18:10;;;;;;;3.13;2.50;;;20.50;46.60;;;;;;5043866;28;20041;-74
2022/03/01 01:20:36;;;;;;;3.33;2.30;;;20.50;46.70;;;;;;5041958;28;20080;-72
2022/03/01 01:23:03;;;;;;;2.58;2.00;;;20.50;46.70;;;;;;5044219;28;20041;-73
2022/03/01 01:25:29;;;;;;;3.58;2.60;;;20.60;46.80;;;;;;5043475;28;20374;-72
2022/03/01 01:27:57;;;;;;;3.10;2.40;;;20.60;46.70;;;;;;5044174;28;20154;-71
2022/03/01 01:30:25;;;;;;;2.45;2.25;;;20.60;46.60;;;;;;5043787;28;20540;-72
2022/03/01 01:32:52;;;;;;;2.97;2.15;;;20.60;46.50;;;;;;5043921;28;20622;-72
2022/03/01 01:35:20;;;;;;;3.35;2.45;;;20.50;46.30;;;;;;5043596;28;20041;-72
2022/03/01 01:37:48;;;;;;;4.07;2.33;;;20.60;46.40;;;;;;5043205;28;20082;-73
2022/03/01 01:40:16;;;;;;;2.60;2.10;;;20.50;46.30;;;;;;5044160;28;20076;-73
2022/03/01 01:42:42;;;;;;;;;;;20.50;46.30;;;;;;5044061;28;20523;-73
2022/03/01 01:45:08;;;;;;;2.65;2.20;;;20.50;46.20;;;;;;5045649;28;19963;-73
2022/03/01 01:47:34;;;;;;;2.83;2.45;;;20.50;47.10;;;;;;5043921;28;20076;-73
2022/03/01 01:50:00;;;;;;;2.50;2.30;;;20.50;46.20;;;;;;5042942;28;20137;-72
2022/03/01 01:52:26;;;;;;;2.80;2.40;;;20.50;46.20;;;;;;5045370;28;20048;-71
2022/03/01 01:54:53;;;;;;;2.75;2.40;;;20.50;46.20;;;;;;5044453;28;20123;-72
2022/03/01 01:57:20;;;;;;;2.67;2.03;;;20.50;46.20;;;;;;5042419;28;20122;-71
2022/03/01 01:59:48;;;;;;;3.27;2.30;;;20.50;46.30;;;;;;5042527;28;20041;-72
2022/03/01 02:02:15;;;;;;;3.03;2.30;;;20.50;46.30;;;;;;5045339;28;20112;-71
2022/03/01 02:04:41;;;;;;;3.03;2.28;;;20.50;46.30;;;;;;5042555;28;20136;-72
2022/03/01 02:07:08;;;;;;;3.10;2.25;;;20.50;46.30;;;;;;5043119;28;20512;-73
2022/03/01 02:09:34;;;;;;;2.28;2.08;;;20.50;46.20;;;;;;5043479;28;20044;-72
2022/03/01 02:12:00;;;;;;;3.90;2.40;;;20.50;46.20;;;;;;5044220;28;20060;-73
2022/03/01 02:14:25;;;;;;;3.00;2.20;;;20.50;46.30;;;;;;5043721;28;20086;-72
2022/03/01 02:16:52;;;;;;;2.42;2.00;;;20.50;47.00;;;;;;5039785;28;20053;-72
2022/03/01 02:19:18;;;;;;;2.35;2.13;;;20.50;46.20;;;;;;5043899;28;20068;-72
2022/03/01 02:21:51;;;;;;;2.67;2.22;;;20.50;46.20;;;;;;5043545;28;20029;-71
2022/03/01 02:24:18;;;;;;;3.38;2.58;;;20.50;46.20;;;;;;5042056;28;20052;-73
2022/03/01 02:26:44;;;;;;;2.75;2.25;;;20.50;46.20;;;;;;5027067;28;20477;-72
2022/03/01 02:29:09;;;;;;;4.10;2.30;;;20.50;46.20;;;;;;5024471;28;20430;-72
2022/03/01 02:31:35;;;;;;;2.63;2.30;;;20.50;46.30;;;;;;5042943;28;20040;-72
2022/03/01 02:34:01;;;;;;;3.17;2.40;;;20.50;46.20;;;;;;5041786;28;20053;-72
2022/03/01 02:36:26;;;;;;;2.65;2.35;;;20.50;46.20;;;;;;5043287;28;20056;-72
2022/03/01 02:38:52;;;;;;;2.22;1.95;;;20.50;46.20;;;;;;5024680;28;20052;-71
2022/03/01 02:41:18;;;;;;;3.00;2.30;;;20.50;46.20;;;;;;5043846;28;20558;-72
2022/03/01 02:43:44;;;;;;;3.05;2.45;;;20.50;46.20;;;;;;5041550;28;20066;-72
2022/03/01 02:46:09;;;;;;;2.40;2.20;;;20.50;46.20;;;;;;5042880;28;20123;-72
2022/03/01 02:48:35;;;;;;;3.17;2.15;;;20.50;46.90;;;;;;5042980;28;20083;-72
2022/03/01 02:51:01;;;;;;;2.53;2.20;;;20.50;46.20;;;;;;5041355;28;20481;-71
2022/03/01 02:53:26;;;;;;;3.65;2.80;;;20.50;46.20;;;;;;5042710;28;20036;-72
2022/03/01 02:55:52;;;;;;;2.65;2.30;;;20.50;46.20;;;;;;5041650;28;20051;-72
2022/03/01 02:58:17;;;;;;;3.00;2.50;;;20.50;46.20;;;;;;5042748;28;20072;-72
2022/03/01 03:00:44;;;;;;;3.28;2.25;;;20.50;46.20;;;;;;5041970;28;20076;-72
2022/03/01 03:03:11;;;;;;;2.60;2.25;;;20.50;46.10;;;;;;5042972;28;20041;-72
2022/03/01 03:05:37;;;;;;;2.90;2.35;;;20.50;46.20;;;;;;5042303;28;20059;-72
2022/03/01 03:08:03;;;;;;;3.08;2.47;;;20.50;46.10;;;;;;5041577;28;20041;-72
2022/03/01 03:10:29;;;;;;;3.33;2.10;;;20.50;46.10;;;;;;5042856;28;20520;-72
2022/03/01 03:12:54;;;;;;;2.58;2.15;;;20.50;46.20;;;;;;5041759;28;20484;-72
2022/03/01 03:15:20;;;;;;;2.83;2.42;;;20.50;46.10;;;;;;5044442;28;20071;-72
2022/03/01 03:17:46;;;;;;;2.90;2.20;;;20.50;46.20;;;;;;5041115;28;20384;-71
2022/03/01 03:20:11;;;;;;;2.50;2.30;;;20.50;46.20;;;;;;5025392;28;20067;-71
2022/03/01 03:22:37;;;;;;;2.80;2.05;;;20.50;46.20;;;;;;5026089;28;20041;-72
2022/03/01 03:25:04;;;;;;;2.67;2.15;;;20.50;46.10;;;;;;5043598;28;20531;-71
2022/03/01 03:27:29;;;;;;;2.88;2.22;;;20.50;46.20;;;;;;5042347;28;20786;-73
2022/03/01 03:29:55;;;;;;;3.20;2.30;;;20.50;46.10;;;;;;5022714;28;20041;-72
2022/03/01 03:32:20;;;;;;;3.28;2.50;;;20.50;46.10;;;;;;5043789;28;20045;-73
2022/03/01 03:34:46;;;;;;;2.85;2.40;;;20.50;46.10;;;;;;5042724;28;20029;-74
2022/03/01 03:37:12;;;;;;;3.22;2.45;;;20.50;46.10;;;;;;5042353;28;20044;-72
2022/03/01 03:39:37;;;;;;;3.05;2.13;;;20.50;46.10;;;;;;5041550;28;20049;-72
2022/03/01 03:42:03;;;;;;;3.00;2.20;;;20.50;46.20;;;;;;5025569;28;20408;-72
2022/03/01 03:44:28;;;;;;;2.42;2.10;;;20.50;46.10;;;;;;5044114;28;20064;-73
2022/03/01 03:46:54;;;;;;;2.22;2.00;;;20.50;46.20;;;;;;5042799;28;20102;-73
2022/03/01 03:49:22;;;;;;;2.72;2.10;;;20.50;46.20;;;;;;5040410;28;20040;-73
2022/03/01 03:51:48;;;;;;;3.22;2.33;;;20.50;46.10;;;;;;5035556;28;20084;-73
2022/03/01 03:54:14;;;;;;;2.78;2.17;;;20.50;46.10;;;;;;5043975;28;20065;-72
2022/03/01 03:56:40;;;;;;;2.78;2.22;;;20.50;46.10;;;;;;5042406;28;20132;-72
2022/03/01 03:59:07;;;;;;;3.30;2.20;;;20.50;46.10;;;;;;5024408;28;20140;-72
2022/03/01 04:01:33;;;;;;;2.33;2.10;;;20.50;46.10;;;;;;5042173;28;20083;-72
2022/03/01 04:04:00;;;;;;;3.05;2.20;;;20.50;46.10;;;;;;5041458;28;20053;-72
2022/03/01 04:06:26;;;;;;;3.83;2.28;;;20.50;46.10;;;;;;5043476;28;20045;-72
2022/03/01 04:08:55;;;;;;;3.88;2.10;;;20.50;46.10;;;;;;5045861;28;20396;-73
2022/03/01 04:11:21;;;;;;;2.80;2.28;;;20.50;46.10;;;;;;5047217;28;20056;-73
2022/03/01 04:13:46;;;;;;;2.08;1.85;;;20.50;46.10;;;;;;5046550;28;20098;-73
2022/03/01 04:16:12;;;;;;;3.00;2.22;;;20.50;46.10;;;;;;5029752;28;20500;-73
2022/03/01 04:18:38;;;;;;;3.10;2.20;;;20.50;46.10;;;;;;5044999;28;20037;-73
2022/03/01 04:21:04;;;;;;;2.50;2.05;;;20.50;46.10;;;;;;5046109;28;20044;-73
2022/03/01 04:23:30;;;;;;;2.70;2.35;;;20.50;46.10;;;;;;5045794;28;20033;-74
2022/03/01 04:25:56;;;;;;;2.22;1.95;;;20.50;46.10;;;;;;5046064;28;20091;-73
2022/03/01 04:28:21;;;;;;;2.72;2.22;;;20.60;46.10;;;;;;5043816;28;20053;-73
2022/03/01 04:30:47;;;;;;;3.60;2.35;;;20.60;46.10;;;;;;5043815;28;20146;-73
2022/03/01 04:33:13;;;;;;;3.10;2.40;;;20.60;46.20;;;;;;5043681;28;20466;-73
2022/03/01 04:35:39;;;;;;;2.65;2.10;;;20.60;46.00;;;;;;5044244;28;20080;-73
2022/03/01 04:38:05;;;;;;;3.40;2.45;;;20.60;46.10;;;;;;5045079;28;20496;-73
2022/03/01 04:40:31;;;;;;;3.90;2.30;;;20.50;46.00;;;;;;5044957;28;20071;-72
2022/03/01 04:42:56;;;;;;;3.00;2.10;;;20.50;46.00;;;;;;5044745;28;20039;-72
2022/03/01 04:45:22;;;;;;;2.95;2.40;;;20.60;46.00;;;;;;5045481;28;20049;-73
2022/03/01 04:47:49;;;;;;;2.92;2.17;;;20.60;46.00;;;;;;5045750;28;20052;-73
2022/03/01 04:50:14;;;;;;;2.95;2.10;;;20.60;46.10;;;;;;5045075;28;20405;-73
2022/03/01 04:52:40;;;;;;;2.58;2.00;;;20.60;46.10;;;;;;5043587;28;20213;-72
2022/03/01 04:55:07;;;;;;;2.50;2.22;;;20.50;46.10;;;;;;5045373;28;20043;-72
2022/03/01 04:57:32;;;;;;;2.65;2.25;;;20.60;46.10;;;;;;5043536;28;20523;-73
2022/03/01 04:59:58;;;;;;;2.72;2.20;;;20.50;46.00;;;;;;5044536;28;20041;-73
2022/03/01 05:02:23;;;;;;;2.40;2.20;;;20.60;46.10;;;;;;5045125;28;20127;-73
2022/03/01 05:04:49;;;;;;;2.80;2.20;;;20.60;46.00;;;;;;5044407;28;20067;-72
2022/03/01 05:07:16;;;;;;;2.90;2.25;;;20.60;46.00;;;;;;5046296;28;20123;-73
2022/03/01 05:09:42;;;;;;;2.80;2.30;;;20.60;46.10;;;;;;5043536;28;20542;-73
2022/03/01 05:12:08;;;;;;;3.40;2.20;;;20.50;46.00;;;;;;5044652;28;20539;-74
2022/03/01 05:14:34;;;;;;;2.70;2.25;;;20.60;46.00;;;;;;5045022;28;20144;-73
2022/03/01 05:16:59;;;;;;;2.70;2.22;;;20.60;46.00;;;;;;5044413;28;20056;-72
2022/03/01 05:19:25;;;;;;;3.10;2.47;;;20.60;46.00;;;;;;5043672;28;20092;-73
2022/03/01 05:21:54;;;;;;;;;;;20.60;46.00;;;;;;5045574;28;20041;-72
2022/03/01 05:24:20;;;;;;;2.75;2.28;;;20.60;46.00;;;;;;5044157;28;19931;-72
2022/03/01 05:26:45;;;;;;;2.83;2.35;;;20.60;46.00;;;;;;5044130;28;20053;-73
2022/03/01 05:29:11;;;;;;;3.10;2.30;;;20.60;46.00;;;;;;5044115;28;20049;-73
2022/03/01 05:31:36;;;;;;;3.33;2.30;;;20.60;46.00;;;;;;5043614;28;20048;-73
2022/03/01 05:34:02;;;;;;;2.30;1.90;;;20.60;46.00;;;;;;5044313;28;20052;-73
2022/03/01 05:36:28;;;;;;;2.78;2.22;;;20.60;46.00;;;;;;5043253;28;20103;-72
2022/03/01 05:38:53;;;;;;;2.67;2.35;;;20.50;46.00;;;;;;5043473;28;20048;-73
2022/03/01 05:41:20;;;;;;;2.30;2.10;;;20.60;46.00;;;;;;5045786;28;20033;-73
2022/03/01 05:43:46;;;;;;;2.80;2.40;;;20.60;46.00;;;;;;5043869;28;20515;-73
2022/03/01 05:46:12;;;;;;;2.40;2.00;;;20.60;46.00;;;;;;5044816;28;20039;-72
2022/03/01 05:48:37;;;;;;;3.33;2.38;;;20.60;46.00;;;;;;5026473;28;20052;-73
2022/03/01 05:51:04;;;;;;;2.75;2.25;;;20.60;46.00;;;;;;5044106;28;20033;-73
2022/03/01 05:53:30;;;;;;;2.30;2.10;;;20.60;46.00;;;;;;5043975;28;20037;-74
2022/03/01 05:55:55;;;;;;;2.60;2.13;;;20.60;46.00;;;;;;5027977;28;20489;-74
2022/03/01 05:58:21;;;;;;;2.83;2.40;;;20.60;46.00;;;;;;5044277;28;20048;-73
2022/03/01 06:00:46;;;;;;;3.28;2.35;;;20.60;46.00;;;;;;5044111;28;20451;-71
2022/03/01 06:03:12;;;;;;;3.10;2.33;;;20.60;46.00;;;;;;5044717;28;20107;-72
2022/03/01 06:05:39;;;;;;;2.85;2.55;;;20.60;46.00;;;;;;5043552;28;20122;-72
2022/03/01 06:08:04;;;;;;;3.28;2.30;;;20.60;46.00;;;;;;5043653;28;20041;-72
2022/03/01 06:10:30;;;;;;;2.72;2.22;;;20.60;46.00;;;;;;5042031;28;20060;-73
2022/03/01 06:12:56;;;;;;;3.15;2.30;;;20.60;46.00;;;;;;5043261;28;20525;-72
2022/03/01 06:15:21;;;;;;;2.47;2.20;;;20.60;45.90;;;;;;5042131;28;20037;-72
2022/03/01 06:17:47;;;;;;;2.50;2.30;;;20.60;45.90;;;;;;5043368;28;20513;-73
2022/03/01 06:20:13;;;;;;;2.88;2.22;;;20.60;45.90;;;;;;5042136;28;20045;-72
2022/03/01 06:22:40;;;;;;;2.78;2.13;;;20.60;46.00;;;;;;5042577;28;20456;-72
2022/03/01 06:25:07;;;;;;;2.95;2.47;;;20.60;45.90;;;;;;5042672;28;20029;-72
2022/03/01 06:27:35;;;;;;;3.05;2.35;;;20.70;46.10;;;;;;5042041;28;20045;-73
2022/03/01 06:30:01;;;;;;;3.15;2.10;;;20.60;46.00;;;;;;5041175;28;20855;-72
2022/03/01 06:32:27;;;;;;;3.08;2.65;;;20.60;46.00;;;;;;5042222;28;20170;-74
2022/03/01 06:34:52;;;;;;;2.65;2.20;;;20.70;46.10;;;;;;5044216;28;20139;-73
2022/03/01 06:37:18;;;;;;;2.72;2.38;;;20.60;45.90;;;;;;5043827;28;20045;-73
2022/03/01 06:39:45;;;;;;;3.00;2.40;;;20.70;46.00;;;;;;5041591;28;20054;-72
2022/03/01 06:42:12;;;;;;;2.88;2.20;;;20.60;46.00;;;;;;5043448;28;20041;-72
2022/03/01 06:44:38;;;;;;;3.88;2.70;;;20.60;46.80;;;;;;5041933;28;20044;-72
2022/03/01 06:47:05;;;;;;;2.30;2.10;;;20.60;46.00;;;;;;5044684;28;20220;-72
2022/03/01 06:49:31;;;;;;;2.38;2.17;;;20.70;46.00;;;;;;5041053;28;20052;-73
2022/03/01 06:51:56;;;;;;;2.78;2.15;;;20.60;46.00;;;;;;5023752;28;20040;-72
2022/03/01 06:54:22;;;;;;;2.97;2.20;;;20.70;46.10;;;;;;5043410;28;20045;-73
2022/03/01 06:56:48;;;;;;;2.85;2.40;;;20.70;46.10;;;;;;5043495;28;20043;-73
2022/03/01 06:59:14;;;;;;;3.05;2.50;;;20.60;46.00;;;;;;5042821;28;20040;-73
2022/03/01 07:01:40;;;;;;;7.40;2.40;;;20.60;46.00;;;;;;5042691;28;20532;-75
2022/03/01 07:04:06;;;;;;;4.78;2.72;;;20.70;46.10;;;;;;5042097;28;20135;-72
2022/03/01 07:06:31;;;;;;;3.13;2.55;;;20.70;46.20;;;;;;5025560;28;20040;-75
2022/03/01 07:08:57;;;;;;;2.88;2.28;;;20.60;46.10;;;;;;5042185;28;20178;-72
2022/03/01 07:11:23;;;;;;;5.78;2.78;;;20.60;46.10;;;;;;5043094;28;20053;-76
2022/03/01 07:13:50;;;;;;;6.43;2.72;;;20.60;46.10;;;;;;5038847;28;20041;-75
2022/03/01 07:16:15;;;;;;;3.00;2.70;;;20.60;46.20;;;;;;5041113;28;20041;-72
2022/03/01 07:18:42;;;;;;;4.53;3.00;;;20.60;46.30;;;;;;5042153;28;20036;-74
2022/03/01 07:21:07;;;;;;;7.15;2.53;;;20.60;46.40;;;;;;5041384;28;20132;-75
2022/03/01 07:23:33;;;;;;;2.92;2.40;;;20.60;46.60;;;;;;5042125;28;20127;-74
2022/03/01 07:25:59;;;;;;;3.05;2.72;;;20.60;46.70;;;;;;5040246;28;20033;-72
2022/03/01 07:28:24;;;;;;;3.83;2.85;;;20.60;46.80;;;;;;5037976;28;20041;-73
2022/03/01 07:30:50;;;;;;;4.15;3.13;;;20.70;46.90;;;;;;5043050;28;20102;-75
2022/03/01 07:33:15;;;;;;;5.70;2.80;;;20.70;46.90;;;;;;5043201;28;20044;-74
2022/03/01 07:35:41;;;;;;;3.17;2.78;;;20.70;46.90;;;;;;5041303;28;20033;-72
2022/03/01 07:38:06;;;;;;;3.65;3.00;;;20.70;47.00;;;;;;5043459;28;20132;-73
2022/03/01 07:40:32;;;;;;;4.18;3.15;;;20.70;47.00;;;;;;5043309;28;20055;-73
2022/03/01 07:42:57;;;;;;;3.92;3.00;;;20.70;47.00;;;;;;5030779;28;20056;-72
2022/03/01 07:45:23;;;;;;;2.90;2.58;;;20.80;47.00;;;;;;5046690;28;20040;-75
2022/03/01 07:47:49;;;;;;;3.83;2.88;;;20.80;47.10;;;;;;5046542;28;20041;-72
2022/03/01 07:50:15;;;;;;;4.60;2.90;;;20.80;47.00;;;;;;5044029;28;20049;-74
2022/03/01 07:52:41;;;;;;;6.05;3.33;;;20.90;47.00;;;;;;5046092;28;20053;-73
2022/03/01 07:55:07;;;;;;;4.28;3.10;;;20.80;46.80;;;;;;5045010;28;20116;-75
2022/03/01 07:57:33;;;;;;;4.68;3.30;;;20.90;46.80;;;;;;5043548;28;20136;-74
2022/03/01 07:59:59;;;;;;;4.20;3.30;;;20.90;46.70;;;;;;5045823;28;20144;-75
2022/03/01 08:02:24;;;;;;;4.05;3.10;;;20.90;46.70;;;;;;5046279;28;20075;-82
2022/03/01 08:04:50;;;;;;;5.75;3.30;;;20.90;46.60;;;;;;5047928;28;21291;-73
2022/03/01 08:07:15;;;;;;;4.55;3.28;;;20.90;46.60;;;;;;5043638;28;20102;-74
2022/03/01 08:09:41;;;;;;;5.80;3.25;;;20.90;46.50;;;;;;5045528;28;20037;-72
2022/03/01 08:12:07;;;;;;;6.35;3.67;;;20.90;46.50;;;;;;5028549;28;20050;-73
2022/03/01 08:14:34;;;;;;;5.88;3.30;;;20.90;46.40;;;;;;5045082;28;20053;-74
2022/03/01 08:17:01;;;;;;;5.63;3.95;;;20.90;46.40;;;;;;5042676;28;20037;-73
2022/03/01 08:19:26;;;;;;;6.03;3.42;;;20.90;46.30;;;;;;5044591;28;20094;-74
2022/03/01 08:21:52;;;;;;;6.35;3.03;;;20.90;46.30;;;;;;5044037;28;20036;-77
2022/03/01 08:24:18;;;;;;;8.40;3.42;;;20.90;46.20;;;;;;5045048;28;20083;-74
2022/03/01 08:26:43;;;;;;;4.18;3.13;;;21.00;46.40;;;;;;5048324;28;20144;-74
2022/03/01 08:29:09;;;;;;;5.15;3.22;;;21.00;46.50;;;;;;5044437;28;20052;-74
2022/03/01 08:31:36;;;;;;;5.05;3.42;;;21.00;46.70;;;;;;5047595;28;20257;-73
2022/03/01 08:34:02;;;;;;;7.60;3.60;;;21.00;46.70;;;;;;5047453;28;20048;-74
2022/03/01 08:36:27;;;;;;;5.68;3.47;;;21.00;46.70;;;;;;5046873;28;20052;-75
2022/03/01 08:38:53;;;;;;;7.28;3.30;;;21.00;46.70;;;;;;5045475;28;20053;-74
2022/03/01 08:41:19;;;;;;;5.20;3.65;;;21.00;46.80;;;;;;5044515;28;20048;-72
2022/03/01 08:43:45;;;;;;;5.97;3.78;;;21.00;46.80;;;;;;5047822;28;20037;-73
2022/03/01 08:46:12;;;;;;;8.88;3.80;;;21.00;46.80;;;;;;5042632;28;20123;-73
2022/03/01 08:48:38;;;;;;;5.45;4.00;;;21.10;46.90;;;;;;5045806;28;20524;-74
2022/03/01 08:51:04;;;;;;;4.15;3.67;;;21.10;46.70;;;;;;5027931;28;20056;-75
2022/03/01 08:53:30;;;;;;;9.60;3.90;;;21.00;46.20;;;;;;5043738;28;20500;-73
2022/03/01 08:55:55;;;;;;;9.38;4.15;;;21.10;45.90;;;;;;5046416;28;20033;-74
2022/03/01 08:58:21;;;;;;;8.77;4.18;;;21.00;45.70;;;;;;5041853;28;20071;-72
2022/03/01 09:00:46;;;;;;;5.25;3.67;;;21.10;45.80;;;;;;5046501;28;20053;-76
2022/03/01 09:03:12;;;;;;;7.15;4.00;;;21.10;45.70;;;;;;5040038;28;20049;-73
2022/03/01 09:05:38;;;;;;;6.57;4.18;;;21.10;45.80;;;;;;5037286;28;20052;-75
2022/03/01 09:08:04;;;;;;;7.18;4.20;;;21.10;45.60;;;;;;5046436;28;20082;-73
2022/03/01 09:10:30;;;;;;;6.47;3.85;;;21.10;45.40;;;;;;5046278;28;20041;-71
2022/03/01 09:12:57;;;;;;;7.28;4.10;;;21.10;45.00;;;;;;5033336;28;20076;-72
2022/03/01 09:15:26;;;;;;;5.25;3.70;;;21.10;44.80;;;;;;5039268;28;20032;-72
2022/03/01 09:17:51;;;;;;;;;;;21.10;44.70;;;;;;5045173;28;20082;-72
2022/03/01 09:20:18;;;;;;;6.40;3.72;;;21.10;44.80;;;;;;5042342;28;20368;-73
2022/03/01 09:22:43;;;;;;;11.35;4.20;;;21.10;44.70;;;;;;5041257;28;20087;-74
2022/03/01 09:25:09;;;;;;;8.10;4.53;;;21.10;44.60;;;;;;5021398;28;20041;-72
2022/03/01 09:27:35;;;;;;;10.40;4.50;;;21.20;44.50;;;;;;5043346;28;20401;-78
2022/03/01 09:30:00;;;;;;;8.75;4.00;;;21.10;44.20;;;;;;5043163;28;20480;-74
2022/03/01 09:32:26;;;;;;;11.73;4.80;;;21.20;44.00;;;;;;5045653;28;20095;-74
2022/03/01 09:34:52;;;;;;;8.35;4.65;;;21.20;43.90;;;;;;5045410;28;20033;-74
2022/03/01 09:37:18;;;;;;;6.25;4.43;;;21.20;43.50;;;;;;5043530;28;20401;-75
2022/03/01 09:39:43;;;;;;;5.95;4.30;;;21.20;43.30;;;;;;5045534;28;20151;-74
2022/03/01 09:42:09;;;;;;;7.63;4.32;;;21.20;43.20;;;;;;5042835;28;20428;-75
2022/03/01 09:44:35;;;;;;;6.10;4.05;;;21.20;43.10;;;;;;5043627;28;20118;-75
2022/03/01 09:47:01;;;;;;;8.48;4.47;;;21.20;43.10;;;;;;5045308;28;20080;-75
2022/03/01 09:49:26;;;;;;;5.72;4.25;;;21.20;43.10;;;;;;5045180;28;20033;-75
2022/03/01 09:51:52;;;;;;;8.27;4.35;;;21.20;43.10;;;;;;5044171;28;20412;-75
2022/03/01 09:54:18;;;;;;;8.18;4.30;;;21.30;43.00;;;;;;5026886;28;20033;-75
2022/03/01 09:56:44;;;;;;;6.78;4.30;;;21.30;43.00;;;;;;5046086;28;20044;-75
2022/03/01 09:59:09;;;;;;;5.53;4.03;;;21.30;42.90;;;;;;5042651;28;20114;-75
2022/03/01 10:01:35;;;;;;;7.07;4.38;;;21.30;42.90;;;;;;5044676;28;20099;-74
2022/03/01 10:04:11;;;;;;;8.10;4.18;;;21.30;42.80;;;;;;5025310;28;20562;-74
2022/03/01 10:06:45;;;;;;;7.15;4.50;;;21.30;42.80;;;;;;5044054;28;20106;-72
2022/03/01 10:09:16;;;;;;;5.82;4.32;;;21.30;42.70;;;;;;5041521;28;20060;-74
2022/03/01 10:11:43;;;;;;;6.93;4.43;;;21.30;42.70;;;;;;5045440;28;20053;-75
2022/03/01 10:14:09;;;;;;;7.53;4.30;;;21.30;42.70;;;;;;5045355;28;20742;-75
2022/03/01 10:16:46;;;;;;;5.75;4.25;;;21.30;42.80;;;;;;5044774;28;20063;-74
2022/03/01 10:19:19;;;;;;;7.80;3.92;;;21.30;42.60;;;;;;5043678;28;20045;-74
2022/03/01 10:22:02;;;;;;;9.00;4.22;;;21.30;42.70;;;;;;5041932;28;20118;-74
2022/03/01 10:24:29;;;;;;;6.53;3.75;;;21.30;42.80;;;;;;5033581;28;20485;-75
2022/03/01 10:26:57;;;;;;;8.07;4.10;;;21.30;42.90;;;;;;5045009;28;20091;-75
2022/03/01 10:29:27;;;;;;;5.33;3.97;;;21.30;43.00;;;;;;5043394;28;20033;-75
2022/03/01 10:31:52;;;;;;;7.70;4.20;;;21.40;43.10;;;;;;5045695;28;21242;-75
2022/03/01 10:34:20;;;;;;;6.15;3.95;;;21.30;43.10;;;;;;5026734;28;20041;-74
2022/03/01 10:36:48;;;;;;;7.55;4.43;;;21.40;43.20;;;;;;5047048;28;20029;-74
2022/03/01 10:39:25;;;;;;;6.70;4.45;;;21.40;43.30;;;;;;5041915;28;20072;-74
2022/03/01 10:41:52;;;;;;;6.57;3.90;;;21.40;43.30;;;;;;5044907;28;20087;-74
2022/03/01 10:44:20;;;;;;;6.47;4.22;;;21.40;43.50;;;;;;5044409;28;20175;-72
2022/03/01 10:46:49;;;;;;;5.05;3.95;;;21.40;43.40;;;;;;5026898;28;20115;-72
2022/03/01 10:49:20;;;;;;;5.00;4.00;;;21.50;43.60;;;;;;5042568;28;20432;-72
2022/03/01 10:51:56;;;;;;;5.53;3.95;;;21.50;43.50;;;;;;5038832;28;20094;-72
2022/03/01 10:54:29;;;;;;;4.65;3.80;;;21.50;43.60;;;;;;5040456;28;20099;-73
2022/03/01 10:56:56;;;;;;;7.32;4.15;;;21.60;43.50;;;;;;5043616;28;20173;-73
2022/03/01 10:59:23;;;;;;;6.47;4.20;;;21.60;43.50;;;;;;5042400;28;20037;-73
2022/03/01 11:01:49;;;;;;;7.10;4.30;;;21.70;43.50;;;;;;5026338;28;20033;-72
2022/03/01 11:04:15;;;;;;;4.95;4.05;;;21.60;43.40;;;;;;5041403;28;20159;-73
2022/03/01 11:06:42;;;;;;;5.57;3.78;;;21.60;43.40;;;;;;5025358;28;20476;-73
2022/03/01 11:09:09;;;;;;;4.80;3.85;;;21.70;43.40;;;;;;5041440;28;20504;-72
2022/03/01 11:11:36;;;;;;;5.13;4.22;;;21.70;43.40;;;;;;5038501;28;20084;-72
2022/03/01 11:14:03;;;;;;;5.07;4.00;;;21.80;43.40;;;;;;5038213;28;20041;-74
2022/03/01 11:16:50;;;;;;;5.07;3.80;;;21.80;43.40;;;;;;5041618;28;20040;-77
2022/03/01 11:19:43;;;;;;;5.75;4.18;;;21.80;43.30;;;;;;5042574;28;20045;-75
2022/03/01 11:22:22;;;;;;;6.50;4.20;;;21.80;43.20;;;;;;5042023;28;20834;-74
2022/03/01 11:24:48;;;;;;;7.03;3.78;;;21.80;43.30;;;;;;5044832;28;20041;-75
2022/03/01 11:27:20;;;;;;;6.60;3.75;;;21.80;43.30;;;;;;5038213;28;20088;-75
2022/03/01 11:29:46;;;;;;;6.95;4.22;;;21.80;43.30;;;;;;5042618;28;20177;-73
2022/03/01 11:32:16;;;;;;;5.70;3.90;;;21.80;43.30;;;;;;5044497;28;20814;-73
2022/03/01 11:34:43;;;;;;;7.85;3.72;;;21.80;43.30;;;;;;5042259;28;20045;-74
2022/03/01 11:37:18;;;;;;;9.30;4.13;;;21.80;43.40;;;;;;5045312;28;20052;-73
2022/03/01 11:39:52;;;;;;;5.20;3.83;;;21.80;43.40;;;;;;5042991;28;20041;-73
2022/03/01 11:42:20;;;;;;;6.47;4.10;;;21.70;43.40;;;;;;5044189;28;20049;-74
2022/03/01 11:44:52;;;;;;;4.93;3.70;;;21.80;43.50;;;;;;5043918;28;20037;-74
2022/03/01 11:47:29;;;;;;;5.65;3.80;;;21.70;43.40;;;;;;5044163;28;20037;-74
2022/03/01 11:49:55;;;;;;;5.23;4.10;;;21.70;43.30;;;;;;5043669;28;20045;-73
2022/03/01 11:52:24;;;;;;;4.93;3.92;;;21.70;43.40;;;;;;5044063;28;20342;-75
2022/03/01 11:54:55;;;;;;;6.10;3.92;;;21.70;43.50;;;;;;5045854;28;20090;-74
2022/03/01 11:57:27;;;;;;;5.18;3.97;;;21.60;43.40;;;;;;5043739;28;20657;-74
2022/03/01 11:59:57;;;;;;;5.35;3.92;;;21.70;43.50;;;;;;5043913;28;20041;-75
2022/03/01 12:02:25;;;;;;;4.13;3.70;;;21.60;43.50;;;;;;5043623;28;20053;-73
2022/03/01 12:04:55;;;;;;;5.63;4.10;;;21.70;43.50;;;;;;5044514;28;20056;-74
2022/03/01 12:07:23;;;;;;;5.70;4.13;;;21.70;43.50;;;;;;5027164;28;20048;-74
2022/03/01 12:10:00;;;;;;;4.97;3.80;;;21.70;43.50;;;;;;5043793;28;20176;-75
2022/03/01 12:12:44;;;;;;;5.22;4.03;;;21.60;43.50;;;;;;5044001;28;20060;-74
2022/03/01 12:15:12;;;;;;;5.63;3.90;;;21.70;43.40;;;;;;5043710;28;20502;-74
2022/03/01 12:17:46;;;;;;;7.07;3.95;;;21.60;43.40;;;;;;5043660;28;20080;-74
2022/03/01 12:20:19;;;;;;;5.70;3.90;;;21.70;43.40;;;;;;5026830;28;20049;-73
2022/03/01 12:22:55;;;;;;;5.70;3.88;;;21.60;43.40;;;;;;5041709;28;20053;-75
2022/03/01 12:25:24;;;;;;;5.60;4.00;;;21.60;43.40;;;;;;5043794;28;20048;-75
2022/03/01 12:27:50;;;;;;;5.65;3.83;;;21.60;43.40;;;;;;5045380;28;20076;-74
2022/03/01 12:30:19;;;;;;;5.07;3.90;;;21.60;43.40;;;;;;5029015;28;20519;-75
2022/03/01 12:32:56;;;;;;;5.68;4.03;;;21.60;43.50;;;;;;5049502;28;20037;-75
2022/03/01 12:35:23;;;;;;;6.43;3.85;;;21.60;43.40;;;;;;5046999;28;20053;-73
2022/03/01 12:37:50;;;;;;;4.97;4.00;;;21.60;43.50;;;;;;5030406;28;20036;-74
2022/03/01 12:40:31;;;;;;;5.82;3.95;;;21.60;43.50;;;;;;5045978;28;20041;-75
2022/03/01 12:43:04;;;;;;;5.88;3.83;;;21.60;43.50;;;;;;5047520;28;20131;-74
2022/03/01 12:45:32;;;;;;;6.82;3.83;;;21.60;43.50;;;;;;5040358;28;20064;-74